Time;durP1;ratioP1;P1;durP2;ratioP2;P2;SDS_P1;SDS_P2;PMS_P1;PMS_P2;Temp;Humidity;BMP_temperature;BMP_pressure;BME280_temperature;BME280_humidity;BME280_pressure;Samples;Min_cycle;Max_cycle;Signal;HPM_P1;HPM_P2
2023/10/28 00:01:26;;;;;;;5.57;5.03;;;;;;;;;;4967042;28;20218;-83
2023/10/28 00:03:56;;;;;;;5.23;4.73;;;;;;;;;;4964844;28;20226;-83
2023/10/28 00:06:24;;;;;;;5.70;5.20;;;;;;;;;;4941766;28;20222;-82
2023/10/28 00:08:50;;;;;;;5.67;5.17;;;;;;;;;;4964458;28;20225;-83
2023/10/28 00:11:19;;;;;;;7.20;5.67;;;;;;;;;;4977650;28;20218;-83
2023/10/28 00:13:45;;;;;;;6.37;5.40;;;;;;;;;;4971051;28;20226;-83
2023/10/28 00:16:14;;;;;;;6.10;5.50;;;;;;;;;;4960559;28;20294;-83
2023/10/28 00:18:49;;;;;;;5.23;4.83;;;;;;;;;;4989682;28;20220;-84
2023/10/28 00:21:18;;;;;;;6.43;5.83;;;;;;;;;;4946192;28;20233;-84
2023/10/28 00:23:46;;;;;;;6.10;5.50;;;;;;;;;;4942545;28;20312;-80
2023/10/28 00:26:14;;;;;;;6.60;5.93;;;;;;;;;;4986088;28;20216;-83
2023/10/28 00:28:43;;;;;;;7.27;5.93;;;;;;;;;;4953714;28;20292;-85
2023/10/28 00:31:16;;;;;;;6.00;5.50;;;;;;;;;;4958938;28;20276;-82
2023/10/28 00:33:44;;;;;;;6.07;5.47;;;;;;;;;;4975945;28;20222;-81
2023/10/28 00:36:12;;;;;;;6.27;5.67;;;;;;;;;;4949762;28;20245;-82
2023/10/28 00:38:40;;;;;;;6.27;5.67;;;;;;;;;;4958987;28;20670;-83
2023/10/28 00:41:08;;;;;;;6.33;5.83;;;;;;;;;;4977899;28;20226;-82
2023/10/28 00:43:41;;;;;;;7.13;6.60;;;;;;;;;;4955478;28;20320;-82
2023/10/28 00:46:09;;;;;;;7.77;6.27;;;;;;;;;;4978744;28;20222;-83
2023/10/28 00:48:40;;;;;;;6.70;6.10;;;;;;;;;;4966831;28;20650;-86
2023/10/28 00:51:34;;;;;;;6.87;6.27;;;;;;;;;;4945384;28;20217;-85
2023/10/28 00:54:02;;;;;;;7.07;6.30;;;;;;;;;;4958787;28;20224;-84
2023/10/28 00:56:34;;;;;;;7.37;6.57;;;;;;;;;;4946064;28;20222;-85
2023/10/28 00:59:00;;;;;;;7.40;6.57;;;;;;;;;;4965554;28;20225;-88
2023/10/28 01:01:28;;;;;;;8.07;7.27;;;;;;;;;;4949538;28;20214;-85
2023/10/28 01:03:56;;;;;;;6.93;6.43;;;;;;;;;;4965526;28;20217;-86
2023/10/28 01:06:24;;;;;;;7.40;6.77;;;;;;;;;;4964352;28;20227;-85
2023/10/28 01:08:51;;;;;;;7.50;6.73;;;;;;;;;;4956985;28;20218;-85
2023/10/28 01:11:18;;;;;;;7.97;7.20;;;;;;;;;;4944271;28;20218;-86
2023/10/28 01:13:43;;;;;;;7.83;7.23;;;;;;;;;;4942370;28;20878;-83
2023/10/28 01:16:10;;;;;;;9.07;8.00;;;;;;;;;;4976973;28;20242;-83
2023/10/28 01:18:35;;;;;;;8.53;7.70;;;;;;;;;;4962902;28;20231;-85
2023/10/28 01:21:11;;;;;;;9.07;8.17;;;;;;;;;;4965292;28;20214;-83
2023/10/28 01:23:40;;;;;;;9.67;8.37;;;;;;;;;;4955663;28;20283;-83
2023/10/28 01:26:08;;;;;;;8.97;8.07;;;;;;;;;;4971278;28;20241;-83
2023/10/28 01:28:35;;;;;;;9.13;8.07;;;;;;;;;;4982911;28;20702;-84
2023/10/28 01:31:01;;;;;;;10.30;9.07;;;;;;;;;;4957831;28;20303;-84
2023/10/28 01:33:28;;;;;;;13.37;9.03;;;;;;;;;;4954214;28;20726;-82
2023/10/28 01:35:54;;;;;;;10.63;9.63;;;;;;;;;;4972329;28;20244;-85
2023/10/28 01:38:23;;;;;;;15.00;10.70;;;;;;;;;;4971403;28;20222;-87
2023/10/28 01:40:52;;;;;;;12.67;10.40;;;;;;;;;;4983730;28;20225;-84
2023/10/28 01:43:22;;;;;;;12.50;9.90;;;;;;;;;;4955081;28;20223;-84
2023/10/28 01:45:48;;;;;;;12.13;10.93;;;;;;;;;;4964894;28;20228;-84
2023/10/28 01:48:19;;;;;;;15.13;11.40;;;;;;;;;;4964469;28;20222;-84
2023/10/28 01:50:47;;;;;;;15.47;12.03;;;;;;;;;;4997655;28;20217;-84
2023/10/28 01:53:15;;;;;;;13.00;11.70;;;;;;;;;;4976732;28;20217;-84
2023/10/28 01:55:40;;;;;;;15.00;11.90;;;;;;;;;;4990771;28;20285;-84
2023/10/28 01:58:07;;;;;;;13.90;12.13;;;;;;;;;;4973935;28;20221;-84
2023/10/28 02:00:33;;;;;;;14.07;12.00;;;;;;;;;;4985043;28;20506;-86
2023/10/28 02:03:07;;;;;;;14.77;12.13;;;;;;;;;;4976923;28;20249;-84
2023/10/28 02:05:37;;;;;;;12.90;11.17;;;;;;;;;;5005465;28;20223;-86
2023/10/28 02:08:03;;;;;;;13.57;11.80;;;;;;;;;;4962382;28;20604;-84
2023/10/28 02:10:32;;;;;;;15.87;12.37;;;;;;;;;;4964441;28;20229;-85
2023/10/28 02:13:03;;;;;;;14.40;11.53;;;;;;;;;;4967497;28;20252;-85
2023/10/28 02:15:31;;;;;;;12.17;10.97;;;;;;;;;;4942905;28;20226;-86
2023/10/28 02:17:59;;;;;;;14.53;12.00;;;;;;;;;;4965180;28;20249;-86
2023/10/28 02:20:28;;;;;;;13.70;12.30;;;;;;;;;;4980835;28;20224;-86
2023/10/28 02:22:56;;;;;;;16.17;12.20;;;;;;;;;;4948885;28;20845;-86
2023/10/28 02:25:24;;;;;;;14.33;11.70;;;;;;;;;;4982963;28;20213;-84
2023/10/28 02:27:49;;;;;;;17.63;13.07;;;;;;;;;;4972356;28;20222;-86
2023/10/28 02:30:19;;;;;;;13.70;11.90;;;;;;;;;;4954074;28;20264;-85
2023/10/28 02:32:45;;;;;;;16.30;12.93;;;;;;;;;;4944309;28;20233;-85
2023/10/28 02:35:11;;;;;;;18.67;14.07;;;;;;;;;;4943859;28;20662;-84
2023/10/28 02:37:39;;;;;;;15.43;12.97;;;;;;;;;;4974203;28;20225;-85
2023/10/28 02:40:08;;;;;;;16.30;13.30;;;;;;;;;;4958202;28;20213;-84
2023/10/28 02:42:34;;;;;;;19.10;13.13;;;;;;;;;;4965167;28;20225;-84
2023/10/28 02:45:00;;;;;;;19.57;13.43;;;;;;;;;;4962941;28;20210;-84
2023/10/28 02:47:33;;;;;;;15.13;12.67;;;;;;;;;;4976500;28;20715;-85
2023/10/28 02:50:01;;;;;;;15.70;13.07;;;;;;;;;;4989973;28;20254;-86
2023/10/28 02:52:26;;;;;;;15.17;13.60;;;;;;;;;;4963930;28;20362;-84
2023/10/28 02:54:55;;;;;;;15.10;13.47;;;;;;;;;;4978748;28;20299;-85
2023/10/28 02:57:22;;;;;;;15.97;12.97;;;;;;;;;;4957345;28;20234;-85
2023/10/28 02:59:48;;;;;;;15.33;12.53;;;;;;;;;;4964336;28;20225;-84
2023/10/28 03:02:16;;;;;;;14.10;12.60;;;;;;;;;;4984256;28;20282;-84
2023/10/28 03:04:44;;;;;;;13.97;12.10;;;;;;;;;;4959008;28;20234;-86
2023/10/28 03:07:10;;;;;;;17.33;13.13;;;;;;;;;;4954275;28;20296;-86
2023/10/28 03:09:42;;;;;;;15.50;13.10;;;;;;;;;;4953806;28;20213;-85
2023/10/28 03:12:15;;;;;;;15.13;13.03;;;;;;;;;;4961916;28;20225;-86
2023/10/28 03:14:41;;;;;;;15.30;13.70;;;;;;;;;;4962994;28;20253;-84
2023/10/28 03:17:12;;;;;;;15.27;12.90;;;;;;;;;;4975631;28;20624;-85
2023/10/28 03:19:42;;;;;;;14.80;12.37;;;;;;;;;;4962308;28;20218;-85
2023/10/28 03:22:08;;;;;;;15.13;13.53;;;;;;;;;;4957716;28;20244;-84
2023/10/28 03:24:33;;;;;;;15.50;13.23;;;;;;;;;;4960741;28;20226;-85
2023/10/28 03:27:01;;;;;;;17.13;14.20;;;;;;;;;;4980245;28;20830;-86
2023/10/28 03:29:26;;;;;;;15.43;13.80;;;;;;;;;;4957853;28;20216;-84
2023/10/28 03:31:52;;;;;;;19.57;13.87;;;;;;;;;;4969800;28;20219;-85
2023/10/28 03:34:17;;;;;;;18.37;14.13;;;;;;;;;;4969243;28;20236;-84
2023/10/28 03:36:44;;;;;;;20.10;14.97;;;;;;;;;;4967100;28;20785;-83
2023/10/28 03:39:15;;;;;;;21.20;17.53;;;;;;;;;;4961685;28;20210;-85
2023/10/28 03:41:40;;;;;;;18.13;12.50;;;;;;;;;;4959012;28;20241;-84
2023/10/28 03:44:09;;;;;;;23.50;21.00;;;;;;;;;;4980937;28;20233;-84
2023/10/28 03:46:34;;;;;;;15.63;14.03;;;;;;;;;;5000364;28;20224;-84
2023/10/28 03:49:00;;;;;;;23.60;17.10;;;;;;;;;;4960091;28;20225;-85
2023/10/28 03:51:31;;;;;;;26.93;21.97;;;;;;;;;;4968945;28;20842;-84
2023/10/28 03:53:58;;;;;;;15.40;11.80;;;;;;;;;;4964170;28;20228;-85
2023/10/28 03:56:27;;;;;;;14.13;11.80;;;;;;;;;;4964362;28;20216;-84
2023/10/28 03:58:57;;;;;;;17.43;11.83;;;;;;;;;;4996574;28;20221;-85
2023/10/28 04:05:10;;;;;;;13.90;10.53;;;;;;;;;;4994435;28;20572;-81
2023/10/28 04:07:35;;;;;;;11.73;10.53;;;;;;;;;;4992350;28;20234;-81
2023/10/28 04:10:07;;;;;;;11.47;10.33;;;;;;;;;;5000045;28;20645;-80
2023/10/28 04:12:36;;;;;;;12.00;10.30;;;;;;;;;;4992057;28;20225;-80
2023/10/28 04:15:06;;;;;;;12.77;10.43;;;;;;;;;;4967521;28;20235;-81
2023/10/28 04:17:31;;;;;;;11.23;10.13;;;;;;;;;;4993621;28;20245;-81
2023/10/28 04:19:59;;;;;;;14.70;10.77;;;;;;;;;;4948889;28;20240;-80
2023/10/28 04:22:25;;;;;;;12.37;10.33;;;;;;;;;;4992743;28;20216;-79
2023/10/28 04:24:51;;;;;;;13.17;10.53;;;;;;;;;;4975153;28;20225;-80
2023/10/28 04:27:16;;;;;;;11.43;10.23;;;;;;;;;;4957683;28;20311;-80
2023/10/28 04:29:45;;;;;;;11.87;9.90;;;;;;;;;;4983800;28;20224;-80
2023/10/28 04:32:13;;;;;;;11.03;9.93;;;;;;;;;;4996164;28;20221;-80
2023/10/28 04:34:41;;;;;;;11.40;9.93;;;;;;;;;;4993552;28;20223;-80
2023/10/28 04:37:07;;;;;;;11.87;9.67;;;;;;;;;;4976965;28;20225;-79
2023/10/28 04:39:33;;;;;;;11.57;10.00;;;;;;;;;;4984325;28;20217;-79
2023/10/28 04:41:58;;;;;;;12.37;10.67;;;;;;;;;;4990127;28;20236;-79
2023/10/28 04:44:23;;;;;;;11.83;10.37;;;;;;;;;;4982894;28;20273;-80
2023/10/28 04:46:51;;;;;;;24.70;10.80;;;;;;;;;;4972274;28;20241;-81
2023/10/28 04:49:24;;;;;;;11.57;10.33;;;;;;;;;;4992800;28;20222;-77
2023/10/28 04:51:52;;;;;;;14.13;10.87;;;;;;;;;;4994469;28;20264;-78
2023/10/28 04:54:20;;;;;;;12.00;10.37;;;;;;;;;;4996626;28;20710;-79
2023/10/28 04:56:45;;;;;;;11.77;10.37;;;;;;;;;;4982518;28;20237;-79
2023/10/28 04:59:13;;;;;;;11.83;10.53;;;;;;;;;;4941592;28;20567;-78
2023/10/28 05:01:39;;;;;;;13.07;10.90;;;;;;;;;;4980374;28;20222;-80
2023/10/28 05:04:10;;;;;;;17.13;11.00;;;;;;;;;;4981632;28;20233;-79
2023/10/28 05:06:36;;;;;;;15.13;11.10;;;;;;;;;;4965657;28;20246;-80
2023/10/28 05:09:02;;;;;;;13.07;10.17;;;;;;;;;;4981050;28;20224;-79
2023/10/28 05:11:28;;;;;;;13.27;11.87;;;;;;;;;;4966562;28;20232;-79
2023/10/28 05:13:55;;;;;;;12.90;10.23;;;;;;;;;;4965038;28;20221;-80
2023/10/28 05:16:23;;;;;;;13.87;11.63;;;;;;;;;;4968702;28;20278;-79
2023/10/28 05:18:49;;;;;;;15.30;11.10;;;;;;;;;;4958650;28;20230;-79
2023/10/28 05:21:15;;;;;;;15.70;11.60;;;;;;;;;;4976183;28;20214;-79
2023/10/28 05:23:41;;;;;;;24.43;11.27;;;;;;;;;;4969289;28;20228;-80
2023/10/28 05:26:07;;;;;;;16.70;10.30;;;;;;;;;;5000566;28;20282;-78
2023/10/28 05:28:32;;;;;;;12.77;10.87;;;;;;;;;;4976207;28;20221;-80
2023/10/28 05:31:00;;;;;;;12.13;10.33;;;;;;;;;;4953746;28;20217;-79
2023/10/28 05:33:25;;;;;;;13.23;10.33;;;;;;;;;;4965136;28;20596;-79
2023/10/28 05:36:05;;;;;;;15.50;11.27;;;;;;;;;;4960974;28;20226;-79
2023/10/28 05:38:31;;;;;;;14.97;10.27;;;;;;;;;;4968239;28;20225;-79
2023/10/28 05:40:57;;;;;;;18.53;10.87;;;;;;;;;;4985659;28;20636;-80
2023/10/28 05:43:23;;;;;;;16.17;10.20;;;;;;;;;;5004885;28;20241;-80
2023/10/28 05:45:48;;;;;;;19.03;10.83;;;;;;;;;;4988042;28;20766;-80
2023/10/28 05:48:14;;;;;;;13.93;10.03;;;;;;;;;;4961482;28;20248;-80
2023/10/28 05:50:39;;;;;;;12.30;10.43;;;;;;;;;;4963307;28;20845;-80
2023/10/28 05:53:07;;;;;;;15.00;10.90;;;;;;;;;;4993966;28;20229;-79
2023/10/28 05:55:33;;;;;;;15.40;11.07;;;;;;;;;;4974084;28;20300;-79
2023/10/28 05:58:01;;;;;;;19.87;11.67;;;;;;;;;;4973611;28;20222;-79
2023/10/28 06:00:28;;;;;;;16.07;10.53;;;;;;;;;;4972876;28;20713;-80
2023/10/28 06:02:56;;;;;;;20.90;11.10;;;;;;;;;;4953189;28;20296;-80
2023/10/28 06:05:25;;;;;;;27.47;11.47;;;;;;;;;;4975078;28;20260;-80
2023/10/28 06:07:55;;;;;;;25.17;11.37;;;;;;;;;;4961817;28;20575;-80
2023/10/28 06:10:22;;;;;;;18.67;11.13;;;;;;;;;;4995831;28;20236;-80
2023/10/28 06:12:50;;;;;;;21.37;11.33;;;;;;;;;;4981279;28;20292;-80
2023/10/28 06:15:16;;;;;;;16.57;11.77;;;;;;;;;;4976689;28;20669;-79
2023/10/28 06:17:45;;;;;;;21.17;11.60;;;;;;;;;;4987098;28;20313;-80
2023/10/28 06:20:11;;;;;;;18.50;12.27;;;;;;;;;;4987751;28;20663;-80
2023/10/28 06:22:37;;;;;;;25.47;12.07;;;;;;;;;;4957591;28;20233;-80
2023/10/28 06:25:05;;;;;;;17.17;11.63;;;;;;;;;;4960059;28;20216;-80
2023/10/28 06:27:39;;;;;;;22.50;11.73;;;;;;;;;;4976884;28;20232;-79
2023/10/28 06:30:06;;;;;;;19.83;12.20;;;;;;;;;;4982940;28;20244;-79
2023/10/28 06:32:31;;;;;;;28.60;12.50;;;;;;;;;;4968590;28;20222;-80
2023/10/28 06:34:57;;;;;;;22.57;12.27;;;;;;;;;;4965919;28;20232;-81
2023/10/28 06:37:25;;;;;;;16.97;11.73;;;;;;;;;;4964465;28;20238;-81
2023/10/28 06:39:51;;;;;;;30.53;13.57;;;;;;;;;;4977461;28;20236;-81
2023/10/28 06:42:18;;;;;;;25.30;12.97;;;;;;;;;;4960182;28;20217;-81
2023/10/28 06:44:48;;;;;;;15.30;12.17;;;;;;;;;;4980616;28;20311;-80
2023/10/28 06:47:13;;;;;;;23.60;12.77;;;;;;;;;;4965534;28;20695;-80
2023/10/28 06:49:41;;;;;;;22.27;12.30;;;;;;;;;;4985421;28;20244;-80
2023/10/28 06:52:07;;;;;;;16.10;11.77;;;;;;;;;;4998977;28;20319;-80
2023/10/28 06:54:33;;;;;;;14.27;11.20;;;;;;;;;;4984367;28;20250;-80
2023/10/28 06:56:58;;;;;;;15.43;10.73;;;;;;;;;;4966253;28;20242;-80
2023/10/28 06:59:26;;;;;;;14.77;11.37;;;;;;;;;;4985470;28;20229;-81
2023/10/28 07:01:54;;;;;;;16.13;11.47;;;;;;;;;;4983619;28;20217;-81
2023/10/28 07:04:22;;;;;;;16.97;12.80;;;;;;;;;;5001212;28;20233;-80
2023/10/28 07:06:49;;;;;;;18.80;12.00;;;;;;;;;;4986427;28;20241;-81
2023/10/28 07:09:20;;;;;;;17.50;11.87;;;;;;;;;;4999570;28;20295;-81
2023/10/28 07:11:50;;;;;;;18.37;12.47;;;;;;;;;;4993026;28;20225;-79
2023/10/28 07:14:18;;;;;;;19.93;12.87;;;;;;;;;;4994394;28;20220;-79
2023/10/28 07:16:48;;;;;;;18.80;13.10;;;;;;;;;;4998567;28;20642;-81
2023/10/28 07:19:18;;;;;;;20.30;13.20;;;;;;;;;;4985840;28;20246;-81
2023/10/28 07:21:44;;;;;;;19.47;12.97;;;;;;;;;;4963445;28;20222;-81
2023/10/28 07:24:11;;;;;;;17.93;12.67;;;;;;;;;;4995880;28;20255;-81
2023/10/28 07:26:45;;;;;;;21.40;13.00;;;;;;;;;;4984982;28;20283;-80
2023/10/28 07:29:10;;;;;;;22.50;13.70;;;;;;;;;;4983235;28;20229;-80
2023/10/28 07:31:41;;;;;;;19.07;12.53;;;;;;;;;;5002709;28;20275;-81
2023/10/28 07:34:09;;;;;;;20.70;13.10;;;;;;;;;;4975069;28;20219;-80
2023/10/28 07:36:34;;;;;;;24.20;13.50;;;;;;;;;;4960553;28;20236;-80
2023/10/28 07:39:01;;;;;;;20.70;13.73;;;;;;;;;;4980642;28;20222;-81
2023/10/28 07:41:31;;;;;;;18.60;12.57;;;;;;;;;;4997592;28;20221;-80
2023/10/28 07:44:05;;;;;;;17.17;12.20;;;;;;;;;;4992563;28;20232;-81
2023/10/28 07:46:33;;;;;;;17.97;13.00;;;;;;;;;;4978084;28;20232;-81
2023/10/28 07:48:59;;;;;;;18.77;12.87;;;;;;;;;;4980913;28;20244;-81
2023/10/28 07:51:25;;;;;;;20.30;13.70;;;;;;;;;;4978001;28;20229;-80
2023/10/28 07:53:53;;;;;;;24.33;13.30;;;;;;;;;;4979566;28;20222;-82
2023/10/28 07:56:19;;;;;;;18.27;12.87;;;;;;;;;;4974354;28;20232;-81
2023/10/28 07:58:45;;;;;;;18.67;13.10;;;;;;;;;;5001311;28;20344;-81
2023/10/28 08:01:18;;;;;;;20.50;13.90;;;;;;;;;;4965457;28;20233;-81
2023/10/28 08:03:46;;;;;;;17.30;12.30;;;;;;;;;;4964049;28;20931;-81
2023/10/28 08:06:12;;;;;;;16.97;12.80;;;;;;;;;;4973529;28;20348;-81
2023/10/28 08:08:38;;;;;;;26.30;13.67;;;;;;;;;;5000066;28;20617;-80
2023/10/28 08:11:05;;;;;;;20.07;13.20;;;;;;;;;;4989192;28;20229;-79
2023/10/28 08:13:37;;;;;;;19.03;13.20;;;;;;;;;;4983704;28;20309;-80
2023/10/28 08:16:03;;;;;;;21.30;13.60;;;;;;;;;;4967028;28;20240;-79
2023/10/28 08:18:31;;;;;;;20.53;14.27;;;;;;;;;;4997597;28;20298;-80
2023/10/28 08:21:02;;;;;;;19.10;13.73;;;;;;;;;;4980234;28;20723;-80
2023/10/28 08:23:33;;;;;;;21.90;13.53;;;;;;;;;;4985575;28;20237;-80
2023/10/28 08:25:59;;;;;;;18.07;14.00;;;;;;;;;;4996238;28;20242;-80
2023/10/28 08:28:27;;;;;;;21.50;13.70;;;;;;;;;;4965447;28;20815;-81
2023/10/28 08:30:58;;;;;;;21.40;13.87;;;;;;;;;;4953367;28;20234;-82
2023/10/28 08:33:24;;;;;;;24.53;13.77;;;;;;;;;;4972705;28;20237;-82
2023/10/28 08:35:51;;;;;;;20.53;14.90;;;;;;;;;;4984142;28;20259;-80
2023/10/28 08:38:19;;;;;;;24.03;14.13;;;;;;;;;;4983023;28;20251;-81
2023/10/28 08:40:45;;;;;;;22.33;13.77;;;;;;;;;;4968195;28;20244;-80
2023/10/28 08:43:30;;;;;;;22.30;14.30;;;;;;;;;;4994537;28;20225;-81
2023/10/28 08:45:56;;;;;;;21.17;13.50;;;;;;;;;;4992613;28;20506;-79
2023/10/28 08:48:26;;;;;;;23.27;13.77;;;;;;;;;;5010428;28;20223;-81
2023/10/28 08:51:00;;;;;;;20.90;14.50;;;;;;;;;;4991556;28;20257;-80
2023/10/28 08:53:26;;;;;;;25.00;14.57;;;;;;;;;;4996214;28;20265;-81
2023/10/28 08:55:51;;;;;;;20.07;14.27;;;;;;;;;;4990327;28;20752;-78
2023/10/28 08:58:18;;;;;;;21.13;15.10;;;;;;;;;;4994735;28;20218;-81
2023/10/28 09:00:50;;;;;;;19.60;14.37;;;;;;;;;;4991636;28;20247;-79
2023/10/28 09:03:30;;;;;;;19.30;14.47;;;;;;;;;;4995110;28;20224;-80
2023/10/28 09:05:56;;;;;;;20.30;15.00;;;;;;;;;;4996941;28;20399;-80
2023/10/28 09:08:21;;;;;;;20.10;15.13;;;;;;;;;;4988603;28;20293;-80
2023/10/28 09:10:47;;;;;;;20.93;14.63;;;;;;;;;;4971167;28;20226;-79
2023/10/28 09:13:16;;;;;;;23.50;15.27;;;;;;;;;;4955194;28;20222;-82
2023/10/28 09:15:42;;;;;;;18.33;15.27;;;;;;;;;;4961322;28;20292;-80
2023/10/28 09:18:10;;;;;;;20.07;15.87;;;;;;;;;;4976002;28;20297;-82
2023/10/28 09:20:37;;;;;;;20.00;15.87;;;;;;;;;;4973755;28;20235;-81
2023/10/28 09:23:03;;;;;;;19.83;15.53;;;;;;;;;;4974304;28;20352;-81
2023/10/28 09:25:28;;;;;;;19.73;15.63;;;;;;;;;;4996261;28;20259;-81
2023/10/28 09:28:02;;;;;;;24.73;16.53;;;;;;;;;;4990913;28;20325;-81
2023/10/28 09:30:32;;;;;;;22.67;17.03;;;;;;;;;;4976670;28;20217;-81
2023/10/28 09:32:57;;;;;;;26.67;18.13;;;;;;;;;;4976916;28;20220;-81
2023/10/28 09:35:23;;;;;;;21.33;17.77;;;;;;;;;;4970653;28;20232;-80
2023/10/28 09:37:53;;;;;;;24.57;16.23;;;;;;;;;;4956229;28;20230;-82
2023/10/28 09:40:19;;;;;;;18.53;16.57;;;;;;;;;;4991440;28;20240;-81
2023/10/28 09:42:52;;;;;;;20.83;17.03;;;;;;;;;;4997481;28;20229;-80
2023/10/28 09:45:18;;;;;;;18.50;16.50;;;;;;;;;;4983596;28;20221;-82
2023/10/28 09:47:57;;;;;;;18.77;16.63;;;;;;;;;;4987997;28;20222;-80
2023/10/28 09:50:25;;;;;;;18.07;16.20;;;;;;;;;;4966640;28;20233;-80
2023/10/28 09:52:57;;;;;;;19.50;17.40;;;;;;;;;;4993651;28;20318;-79
2023/10/28 09:55:27;;;;;;;20.60;16.30;;;;;;;;;;4977894;28;20229;-79
2023/10/28 09:58:18;;;;;;;23.53;17.57;;;;;;;;;;4985541;28;20245;-81
2023/10/28 10:01:15;;;;;;;18.87;17.00;;;;;;;;;;5010001;28;20216;-82
2023/10/28 10:03:57;;;;;;;19.63;16.00;;;;;;;;;;5008803;28;20210;-80
2023/10/28 10:06:25;;;;;;;19.63;16.17;;;;;;;;;;4987832;28;20209;-80
2023/10/28 10:08:52;;;;;;;17.37;15.53;;;;;;;;;;4960976;28;20254;-81
2023/10/28 10:11:24;;;;;;;16.77;15.10;;;;;;;;;;4999402;28;20696;-82
2023/10/28 10:13:55;;;;;;;16.57;14.73;;;;;;;;;;4970057;28;20259;-81
2023/10/28 10:16:46;;;;;;;16.13;14.53;;;;;;;;;;4968027;28;20224;-82
2023/10/28 10:19:17;;;;;;;15.67;13.93;;;;;;;;;;4958921;28;20305;-81
2023/10/28 10:21:52;;;;;;;15.83;14.23;;;;;;;;;;4973397;28;20620;-81
2023/10/28 10:24:22;;;;;;;15.77;13.50;;;;;;;;;;4977130;28;20229;-81
2023/10/28 10:26:55;;;;;;;14.83;13.53;;;;;;;;;;4997015;28;20222;-80
2023/10/28 10:29:20;;;;;;;14.50;12.90;;;;;;;;;;4974267;28;20663;-81
2023/10/28 10:31:55;;;;;;;17.40;12.20;;;;;;;;;;4966799;28;20226;-79
2023/10/28 10:34:33;;;;;;;13.17;11.97;;;;;;;;;;4953626;28;20217;-80
2023/10/28 10:37:01;;;;;;;12.50;11.23;;;;;;;;;;4971258;28;20894;-80
2023/10/28 10:39:27;;;;;;;11.90;10.80;;;;;;;;;;4961400;28;20221;-80
2023/10/28 10:41:56;;;;;;;11.40;9.47;;;;;;;;;;4993215;28;20578;-82
2023/10/28 10:44:27;;;;;;;10.03;9.07;;;;;;;;;;5000517;28;20240;-81
2023/10/28 10:47:08;;;;;;;9.67;8.67;;;;;;;;;;4994549;28;20613;-81
2023/10/28 10:49:38;;;;;;;9.30;8.40;;;;;;;;;;4966343;28;20222;-80
2023/10/28 10:52:08;;;;;;;11.93;7.27;;;;;;;;;;5008026;28;21019;-80
2023/10/28 10:54:38;;;;;;;7.07;6.47;;;;;;;;;;4978884;28;20236;-81
2023/10/28 10:57:04;;;;;;;6.37;5.77;;;;;;;;;;4945245;28;20258;-79
2023/10/28 10:59:35;;;;;;;6.47;5.90;;;;;;;;;;4985131;28;20233;-80
2023/10/28 11:02:02;;;;;;;6.47;5.87;;;;;;;;;;4959092;28;20910;-81
2023/10/28 11:04:28;;;;;;;6.80;5.90;;;;;;;;;;4994172;28;20287;-80
2023/10/28 11:06:54;;;;;;;6.40;5.77;;;;;;;;;;4982303;28;20273;-81
2023/10/28 11:09:24;;;;;;;6.23;5.60;;;;;;;;;;4992721;28;20362;-80
2023/10/28 11:11:50;;;;;;;5.43;4.90;;;;;;;;;;4987793;28;20312;-81
2023/10/28 11:14:15;;;;;;;5.90;5.30;;;;;;;;;;4991024;28;20353;-80
2023/10/28 11:16:41;;;;;;;5.23;4.73;;;;;;;;;;4994695;28;20237;-80
2023/10/28 11:19:11;;;;;;;6.83;4.53;;;;;;;;;;4965512;28;20303;-80
2023/10/28 11:21:37;;;;;;;4.83;4.20;;;;;;;;;;4973629;28;20228;-80
2023/10/28 11:24:07;;;;;;;4.27;3.87;;;;;;;;;;4986787;28;20241;-80
2023/10/28 11:26:33;;;;;;;4.40;3.57;;;;;;;;;;4957858;28;20690;-81
2023/10/28 11:28:59;;;;;;;3.70;3.40;;;;;;;;;;4964335;28;20248;-80
2023/10/28 11:31:29;;;;;;;5.07;3.70;;;;;;;;;;4992976;28;20233;-80
2023/10/28 11:34:04;;;;;;;4.40;3.43;;;;;;;;;;4988919;28;20221;-80
2023/10/28 11:36:31;;;;;;;2.83;2.57;;;;;;;;;;4987239;28;20233;-80
2023/10/28 11:38:56;;;;;;;2.63;2.03;;;;;;;;;;4986011;28;20226;-80
2023/10/28 11:41:22;;;;;;;5.23;3.03;;;;;;;;;;4965986;28;20259;-80
2023/10/28 11:43:50;;;;;;;2.87;2.20;;;;;;;;;;4956567;28;20246;-79
2023/10/28 11:46:16;;;;;;;3.03;2.20;;;;;;;;;;4960846;28;20312;-78
2023/10/28 11:48:45;;;;;;;2.00;1.73;;;;;;;;;;4963093;28;20307;-78
2023/10/28 11:51:14;;;;;;;5.70;1.60;;;;;;;;;;4970319;28;20671;-77
2023/10/28 11:53:47;;;;;;;4.03;1.83;;;;;;;;;;4976619;28;20217;-79
2023/10/28 11:56:15;;;;;;;2.47;1.50;;;;;;;;;;4955968;28;20233;-79
2023/10/28 11:58:43;;;;;;;2.07;1.50;;;;;;;;;;4966414;28;20360;-80
2023/10/28 12:01:29;;;;;;;1.97;1.30;;;;;;;;;;4988775;28;20231;-79
2023/10/28 12:03:54;;;;;;;3.33;1.40;;;;;;;;;;4978143;28;20958;-79
2023/10/28 12:06:22;;;;;;;1.80;1.70;;;;;;;;;;4989169;28;20232;-80
2023/10/28 12:08:50;;;;;;;1.70;1.60;;;;;;;;;;4984464;28;20232;-79
2023/10/28 12:11:15;;;;;;;2.23;1.50;;;;;;;;;;4973888;28;20313;-79
2023/10/28 12:13:42;;;;;;;2.40;2.03;;;;;;;;;;4967289;28;20581;-80
2023/10/28 12:16:10;;;;;;;2.77;1.70;;;;;;;;;;4973319;28;20589;-78
2023/10/28 12:18:35;;;;;;;2.77;1.80;;;;;;;;;;4960627;28;20233;-79
2023/10/28 12:21:01;;;;;;;2.33;2.13;;;;;;;;;;4973268;28;20224;-79
2023/10/28 12:23:26;;;;;;;4.13;1.73;;;;;;;;;;4977072;28;21309;-79
2023/10/28 12:25:55;;;;;;;1.80;1.70;;;;;;;;;;4979391;28;20826;-80
2023/10/28 12:28:22;;;;;;;1.73;1.40;;;;;;;;;;4964052;28;20576;-78
2023/10/28 12:30:50;;;;;;;2.53;1.83;;;;;;;;;;4988323;28;20221;-79
2023/10/28 12:33:16;;;;;;;1.70;1.60;;;;;;;;;;4964418;28;20603;-78
2023/10/28 12:35:44;;;;;;;1.63;1.53;;;;;;;;;;4965248;28;20223;-77
2023/10/28 12:38:10;;;;;;;6.83;1.87;;;;;;;;;;4988561;28;20240;-78
2023/10/28 12:40:43;;;;;;;2.57;1.53;;;;;;;;;;4959883;28;20226;-79
2023/10/28 12:43:11;;;;;;;4.13;1.50;;;;;;;;;;4973317;28;20217;-81
2023/10/28 12:45:37;;;;;;;2.20;1.60;;;;;;;;;;4971180;28;20226;-78
2023/10/28 12:48:03;;;;;;;4.60;1.52;;;;;;;;;;4977402;28;20220;-77
2023/10/28 12:50:31;;;;;;;1.87;1.67;;;;;;;;;;4973468;28;20686;-81
2023/10/28 12:52:57;;;;;;;1.60;1.50;;;;;;;;;;4965509;28;20593;-78
2023/10/28 12:55:24;;;;;;;2.53;1.67;;;;;;;;;;4985505;28;20304;-80
2023/10/28 12:57:50;;;;;;;1.50;1.40;;;;;;;;;;4984450;28;20769;-80
2023/10/28 13:00:17;;;;;;;5.63;1.70;;;;;;;;;;4957072;28;20233;-80
2023/10/28 13:02:45;;;;;;;2.80;1.52;;;;;;;;;;4973378;28;20225;-79
2023/10/28 13:05:11;;;;;;;3.20;1.47;;;;;;;;;;4983673;28;20228;-78
2023/10/28 13:07:36;;;;;;;2.00;1.53;;;;;;;;;;4983458;28;20233;-79
2023/10/28 13:10:02;;;;;;;5.30;1.77;;;;;;;;;;4955499;28;20225;-79
2023/10/28 13:12:31;;;;;;;1.70;1.48;;;;;;;;;;4971250;28;20229;-80
2023/10/28 13:14:57;;;;;;;2.73;1.60;;;;;;;;;;4950482;28;20280;-80
2023/10/28 13:17:23;;;;;;;1.60;1.50;;;;;;;;;;4966612;28;20267;-79
2023/10/28 13:19:49;;;;;;;1.77;1.37;;;;;;;;;;4980352;28;20248;-79
2023/10/28 13:22:22;;;;;;;2.13;1.60;;;;;;;;;;4962791;28;20221;-80
2023/10/28 13:24:50;;;;;;;2.50;1.80;;;;;;;;;;4970817;28;20209;-81
2023/10/28 13:27:16;;;;;;;2.03;1.60;;;;;;;;;;4978485;28;20618;-80
2023/10/28 13:29:42;;;;;;;2.07;1.50;;;;;;;;;;4982459;28;20274;-80
2023/10/28 13:32:10;;;;;;;2.97;2.30;;;;;;;;;;4993951;28;20220;-80
2023/10/28 13:34:38;;;;;;;2.20;1.93;;;;;;;;;;4980740;28;20224;-80
2023/10/28 13:37:08;;;;;;;3.47;1.77;;;;;;;;;;4999582;28;20225;-80
2023/10/28 13:39:33;;;;;;;1.90;1.70;;;;;;;;;;4977094;28;20790;-80
2023/10/28 13:42:00;;;;;;;3.80;1.87;;;;;;;;;;5003105;28;20227;-80
2023/10/28 13:44:25;;;;;;;2.87;1.80;;;;;;;;;;4976964;28;20228;-80
2023/10/28 13:46:53;;;;;;;2.77;2.20;;;;;;;;;;4976965;28;20228;-81
2023/10/28 13:49:20;;;;;;;3.30;2.40;;;;;;;;;;4988986;28;20229;-81
2023/10/28 13:51:51;;;;;;;2.53;2.00;;;;;;;;;;4960275;28;20251;-80
2023/10/28 13:54:17;;;;;;;3.80;2.37;;;;;;;;;;4976840;28;20218;-81
2023/10/28 13:56:46;;;;;;;4.80;2.20;;;;;;;;;;4959611;28;20269;-79
2023/10/28 13:59:11;;;;;;;4.87;2.23;;;;;;;;;;4981162;28;20227;-80
2023/10/28 14:01:39;;;;;;;4.23;2.37;;;;;;;;;;4957418;28;20225;-80
2023/10/28 14:04:05;;;;;;;5.00;2.70;;;;;;;;;;4953643;28;20227;-80
2023/10/28 14:06:32;;;;;;;3.80;2.27;;;;;;;;;;4972796;28;20241;-79
2023/10/28 14:08:57;;;;;;;5.53;2.73;;;;;;;;;;4985684;28;20240;-80
2023/10/28 14:11:26;;;;;;;3.43;2.60;;;;;;;;;;4966416;28;20228;-79
2023/10/28 14:13:52;;;;;;;3.20;2.60;;;;;;;;;;4955141;28;20303;-79
2023/10/28 14:16:20;;;;;;;3.37;2.40;;;;;;;;;;4976082;28;20324;-78
2023/10/28 14:18:49;;;;;;;5.50;2.67;;;;;;;;;;4947826;28;20644;-79
2023/10/28 14:21:19;;;;;;;5.27;2.83;;;;;;;;;;4989663;28;21254;-80
2023/10/28 14:23:45;;;;;;;2.90;2.70;;;;;;;;;;4988485;28;20256;-80
2023/10/28 14:26:10;;;;;;;5.07;2.80;;;;;;;;;;4965858;28;20519;-79
2023/10/28 14:28:38;;;;;;;3.33;2.57;;;;;;;;;;4959152;28;20833;-79
2023/10/28 14:31:04;;;;;;;3.93;2.80;;;;;;;;;;4988843;28;20242;-81
2023/10/28 14:33:29;;;;;;;2.97;2.60;;;;;;;;;;4980382;28;20894;-79
2023/10/28 14:35:55;;;;;;;2.87;2.67;;;;;;;;;;4983734;28;20221;-78